Date,TemperatureHighF,TemperatureAvgF,TemperatureLowF,DewpointHighF,DewpointAvgF,DewpointLowF,HumidityHigh,HumidityAvg,HumidityLow,PressureMaxIn,PressureMinIn,WindSpeedMaxMPH,WindSpeedAvgMPH,GustSpeedMaxMPH,PrecipitationSumIn
2013-6-1,92.7,80.2,66.2,69.8,66.2,63.8,94,65,44,30.06,29.93,14,3,14,0.00
2013-6-2,87.4,78.4,68.9,68.4,65.6,63.0,87,66,48,29.94,29.83,14,4,14,0.00
2013-6-3,87.3,72.6,64.9,66.8,61.7,51.7,95,71,43,29.93,29.84,21,4,21,0.00
2013-6-4,76.8,65.8,45.5,53.9,45.2,30.3,74,49,32,30.13,29.93,17,5,21,0.00
2013-6-5,83.1,68.6,52.3,50.0,44.8,30.3,77,46,18,30.19,30.07,14,3,14,0.00
2013-6-6,73.2,64.0,58.6,62.2,54.5,46.6,93,72,46,30.11,29.92,19,6,19,0.00
2013-6-7,70.9,65.3,60.3,69.1,63.8,58.2,97,95,91,29.93,29.61,18,4,18,0.01
2013-6-8,82.6,68.9,61.9,63.2,60.0,56.1,95,75,48,30.10,29.67,18,5,18,0.00
2013-6-9,87.3,72.8,59.5,62.9,58.1,53.1,84,62,41,30.21,30.10,9,2,9,0.00
2013-6-10,76.3,70.0,65.8,72.5,67.1,61.9,96,90,76,30.15,29.81,21,4,21,0.01
2013-6-11,79.7,72.9,65.1,66.8,62.6,57.1,96,72,56,29.84,29.76,21,8,21,0.02
2013-6-12,82.2,74.3,64.2,63.6,60.7,57.3,81,63,50,29.88,29.83,19,5,19,0.00
2013-6-13,84.4,72.0,63.3,69.8,62.4,56.0,95,73,50,29.86,29.45,32,8,45,13.14
2013-6-14,79.5,65.8,55.6,56.4,53.2,49.1,91,67,38,30.12,29.57,19,7,19,14.42
2013-6-15,81.9,70.9,58.8,58.4,53.4,47.7,81,56,34,30.07,29.90,16,4,16,0.05
2013-6-16,83.3,66.5,58.6,62.3,54.1,48.2,77,66,45,29.95,29.81,13,1,13,6.09
2013-6-17,71.2,70.8,70.2,66.2,65.6,64.8,84,84,83,29.93,29.92,9,2,9,0.00
2013-6-18,72.9,67.8,66.0,66.9,64.0,62.4,91,87,83,29.92,29.85,6,1,6,2.75
2013-6-24,77.9,71.5,68.7,71.8,68.4,65.5,97,90,78,29.95,29.91,10,2,10,0.07
2013-6-25,94.5,80.2,64.9,74.9,69.5,64.7,99,73,46,29.94,29.78,31,3,31,0.15
2013-6-26,92.1,77.9,64.4,73.2,69.1,64.1,99,77,50,29.81,29.70,15,3,15,0.04
2013-6-27,89.4,76.0,66.7,78.2,71.2,66.3,99,86,57,29.74,29.50,16,3,16,0.28
2013-6-28,87.6,73.8,68.5,72.3,69.2,66.2,99,87,51,29.52,29.40,14,4,14,0.35
2013-6-29,91.9,77.7,63.9,69.7,65.9,61.7,99,71,40,30.02,29.42,11,3,11,0.18
2013-6-30,87.8,77.1,70.2,75.8,71.7,66.7,99,84,58,30.14,30.02,18,4,18,1.04